This is the latest recevied weather packets stored in our database for station/object KC3DGM. If no packets are shown the sender has not sent any weather packets the latest 1 day(s).
| Time | Temp. | Humidity | Pressure | Rain* | Wind** | Luminosity | Snow |
|---|---|---|---|---|---|---|---|
| 1777973436 | 17.78° C | 69% | 976.4 hPa | 0 mm | 0.89 m/s, 273° | 0 W/m² | - |
| 1777973133 | 17.78° C | 70% | 976.6 hPa | 0 mm | 0.89 m/s, 254° | 0 W/m² | - |
| 1777972832 | 17.78° C | 69% | 976.8 hPa | 0 mm | 0 m/s | 0 W/m² | - |
| 1777972528 | 17.78° C | 69% | 976.7 hPa | 0 mm | 0.45 m/s, 299° | 0 W/m² | - |
| 1777972226 | 17.78° C | 69% | 976.5 hPa | 0 mm | 0.45 m/s, 294° | 0 W/m² | - |
| 1777971924 | 17.78° C | 69% | 976.2 hPa | 0 mm | 0.45 m/s, 260° | 0 W/m² | - |
| 1777971622 | 17.78° C | 70% | 976.4 hPa | 0 mm | 0.89 m/s, 264° | 0 W/m² | - |
| 1777971319 | 17.78° C | 70% | 976.6 hPa | 0 mm | 0.45 m/s, 303° | 0 W/m² | - |
| 1777971017 | 17.78° C | 69% | 976.5 hPa | 0 mm | 0.45 m/s, 71° | 0 W/m² | - |
| 1777970715 | 17.78° C | 69% | 976.3 hPa | 0 mm | 0.45 m/s, 282° | 0 W/m² | - |
| 1777970413 | 17.78° C | 70% | 976.4 hPa | 0 mm | 1.79 m/s, 215° | 0 W/m² | - |
| 1777970110 | 17.78° C | 70% | 976.5 hPa | 0 mm | 2.24 m/s, 67° | 0 W/m² | - |
| 1777969806 | 17.22° C | 71% | 976.4 hPa | 0 mm | 0.89 m/s, 257° | 0 W/m² | - |
| 1777969502 | 17.22° C | 70% | 976.1 hPa | 0 mm | 0.45 m/s, 269° | 0 W/m² | - |
| 1777969199 | 17.22° C | 71% | 976.2 hPa | 0 mm | 1.34 m/s, 188° | 0 W/m² | - |
| 1777968895 | 17.22° C | 71% | 976.1 hPa | 0 mm | 0 m/s | 0 W/m² | - |
| 1777968592 | 17.22° C | 72% | 976.4 hPa | 0 mm | 0.45 m/s, 330° | 0 W/m² | - |
| 1777968289 | 16.67° C | 73% | 976.1 hPa | 0 mm | 0.89 m/s, 241° | 0 W/m² | - |
| 1777967984 | 16.11° C | 74% | 976.3 hPa | 0 mm | 0.89 m/s, 284° | 0 W/m² | - |
| 1777967681 | 15.56° C | 76% | 976.3 hPa | 0 mm | 0 m/s | 0 W/m² | - |
| 1777967378 | 15° C | 79% | 976 hPa | 0 mm | 0 m/s | 0 W/m² | - |
| 1777967076 | 15.56° C | 77% | 976.1 hPa | 0 mm | 0 m/s | 0 W/m² | - |
| 1777966773 | 15.56° C | 76% | 976.1 hPa | 0 mm | 0 m/s | 0 W/m² | - |
| 1777966470 | 15.56° C | 76% | 976.2 hPa | 0 mm | 0 m/s | 0 W/m² | - |
| 1777966167 | 15.56° C | 77% | 976.2 hPa | 0 mm | 0 m/s | 0 W/m² | - |
* Rain latest hour (hover to see other rain measurements)
** Current wind speed in m/s (hover to see current wind gust speed)